createdAt,value
2022-07-25T00:00:20.954Z,12.23
2022-07-25T00:02:38.502Z,10.25
2022-07-25T00:04:41.736Z,11.75
2022-07-25T00:06:44.536Z,9.98
2022-07-25T00:08:46.149Z,12.35
2022-07-25T00:10:47.713Z,12.10
2022-07-25T00:12:49.537Z,12.40
2022-07-25T00:14:51.168Z,13.80
2022-07-25T00:16:52.764Z,11.95
2022-07-25T00:18:54.546Z,12.45
2022-07-25T00:20:56.190Z,17.25
2022-07-25T00:22:57.747Z,16.15
2022-07-25T00:24:59.565Z,12.07
2022-07-25T00:27:02.776Z,10.40
2022-07-25T00:29:04.400Z,12.60
2022-07-25T00:31:06.483Z,12.52
2022-07-25T00:33:08.044Z,12.48
2022-07-25T00:35:09.747Z,13.00
2022-07-25T00:37:11.738Z,14.45
2022-07-25T00:39:13.392Z,14.65
2022-07-25T00:41:15.070Z,13.10
2022-07-25T00:43:17.018Z,16.83
2022-07-25T00:45:18.652Z,12.65
2022-07-25T00:47:20.367Z,14.18
2022-07-25T00:49:22.464Z,14.32
2022-07-25T00:51:25.203Z,11.10
2022-07-25T00:53:26.913Z,12.93
2022-07-25T00:55:29.176Z,17.33
2022-07-25T00:57:30.739Z,14.10
2022-07-25T00:59:32.378Z,13.40
2022-07-25T01:01:34.247Z,16.80
2022-07-25T01:03:35.875Z,10.65
2022-07-25T01:05:37.452Z,15.15
2022-07-25T01:07:39.775Z,10.38
2022-07-25T01:09:41.632Z,13.15
2022-07-25T01:11:43.335Z,9.88
2022-07-25T01:13:45.421Z,13.05
2022-07-25T01:15:47.367Z,12.52
2022-07-25T01:17:49.168Z,11.13
2022-07-25T01:19:53.170Z,12.00
2022-07-25T01:21:56.246Z,11.95
2022-07-25T01:23:57.845Z,13.38
2022-07-25T01:25:59.676Z,14.27
2022-07-25T01:28:02.681Z,11.73
2022-07-25T01:30:06.078Z,24.60
2022-07-25T01:32:07.908Z,76.38
2022-07-25T01:34:10.007Z,200.73
2022-07-25T01:36:11.827Z,231.63
2022-07-25T01:38:14.273Z,267.90
2022-07-25T01:40:16.168Z,280.73
2022-07-25T01:42:17.755Z,284.55
2022-07-25T01:44:19.613Z,281.60
2022-07-25T01:46:21.277Z,224.77
2022-07-25T01:48:22.926Z,260.13
2022-07-25T01:50:25.179Z,211.25
2022-07-25T01:52:26.799Z,218.50
2022-07-25T01:54:28.509Z,223.45
2022-07-25T01:56:30.374Z,213.30
2022-07-25T01:58:33.666Z,236.63
2022-07-25T02:00:35.462Z,239.15
2022-07-25T02:02:37.317Z,47.83
2022-07-25T02:04:38.981Z,70.38
2022-07-25T02:06:41.505Z,64.15
2022-07-25T02:08:43.270Z,53.63
2022-07-25T02:10:44.874Z,53.78
2022-07-25T02:12:46.798Z,31.00
2022-07-25T02:14:48.544Z,24.33
2022-07-25T02:16:50.485Z,21.20
2022-07-25T02:18:52.186Z,22.55
2022-07-25T02:20:54.139Z,20.45
2022-07-25T02:22:55.735Z,19.52
2022-07-25T02:24:57.321Z,18.95
2022-07-25T02:26:59.128Z,16.88
2022-07-25T02:29:01.243Z,14.93
2022-07-25T02:31:02.868Z,16.40
2022-07-25T02:33:04.757Z,19.02
2022-07-25T02:35:09.958Z,15.48
2022-07-25T02:37:14.857Z,16.30
2022-07-25T02:39:16.796Z,13.50
2022-07-25T02:41:18.417Z,15.07
2022-07-25T02:43:20.406Z,15.05
2022-07-25T02:45:22.261Z,14.07
2022-07-25T02:47:23.810Z,18.20
2022-07-25T02:49:25.543Z,16.45
2022-07-25T02:51:27.383Z,16.10
2022-07-25T02:53:55.468Z,16.00
2022-07-25T02:55:50.780Z,13.55
2022-07-25T02:57:52.760Z,13.60
2022-07-25T02:59:54.348Z,15.18
2022-07-25T03:01:56.137Z,14.35
2022-07-25T03:03:58.005Z,18.27
2022-07-25T03:05:59.669Z,15.23
2022-07-25T03:08:01.457Z,18.02
2022-07-25T03:10:08.915Z,16.48
2022-07-25T03:12:13.093Z,15.20
2022-07-25T03:14:14.741Z,15.35
2022-07-25T03:16:16.649Z,15.88
2022-07-25T03:18:18.231Z,14.75
2022-07-25T03:20:19.800Z,17.85
2022-07-25T03:22:21.951Z,16.95
2022-07-25T03:24:23.528Z,15.20
2022-07-25T03:26:25.123Z,16.27
2022-07-25T03:28:27.148Z,16.77
2022-07-25T03:30:28.721Z,13.02
2022-07-25T03:32:30.271Z,13.93
2022-07-25T03:34:32.103Z,15.13
2022-07-25T03:36:33.685Z,13.90
2022-07-25T03:38:35.343Z,17.40
2022-07-25T03:40:37.563Z,13.85
2022-07-25T03:42:39.327Z,16.00
2022-07-25T03:44:40.933Z,17.35
2022-07-25T03:46:42.750Z,14.73
2022-07-25T03:48:44.426Z,16.17
2022-07-25T03:50:46.057Z,18.25
2022-07-25T03:54:50.830Z,14.85
2022-07-25T03:56:52.611Z,21.00
2022-07-25T03:58:54.415Z,16.48
2022-07-25T04:00:56.316Z,14.90
2022-07-25T04:03:00.261Z,17.33
2022-07-25T04:05:02.092Z,14.30
2022-07-25T04:07:03.700Z,14.65
2022-07-25T04:09:05.942Z,21.70
2022-07-25T04:11:07.738Z,16.52
2022-07-25T04:13:09.343Z,14.65
2022-07-25T04:15:11.069Z,18.20
2022-07-25T04:17:13.119Z,13.23
2022-07-25T04:19:14.764Z,11.52
2022-07-25T04:21:16.666Z,13.18
2022-07-25T04:23:18.452Z,10.15
2022-07-25T04:25:20.124Z,12.35
2022-07-25T04:27:22.200Z,10.75
2022-07-25T04:29:23.999Z,10.95
2022-07-25T04:31:25.915Z,10.65
2022-07-25T04:33:27.759Z,12.02
2022-07-25T04:35:29.627Z,10.25
2022-07-25T04:37:31.207Z,14.30
2022-07-25T04:39:32.769Z,10.02
2022-07-25T04:41:34.606Z,9.43
2022-07-25T04:43:36.239Z,10.43
2022-07-25T04:45:39.132Z,10.15
2022-07-25T04:47:40.970Z,6.85
2022-07-25T04:49:42.537Z,9.48
2022-07-25T04:51:44.143Z,8.23
2022-07-25T04:53:46.355Z,8.43
2022-07-25T04:55:47.959Z,10.27
2022-07-25T04:57:49.570Z,7.78
2022-07-25T04:59:51.829Z,8.48
2022-07-25T05:01:53.475Z,9.15
2022-07-25T05:03:55.079Z,8.70
2022-07-25T05:05:56.879Z,11.75
2022-07-25T05:07:59.422Z,8.52
2022-07-25T05:10:01.279Z,6.53
2022-07-25T05:12:03.204Z,7.90
2022-07-25T05:14:05.629Z,6.38
2022-07-25T05:16:07.532Z,6.22
2022-07-25T05:18:09.589Z,4.25
2022-07-25T05:20:11.517Z,7.63
2022-07-25T05:22:13.177Z,6.72
2022-07-25T05:24:15.099Z,9.48
2022-07-25T05:26:16.712Z,5.32
2022-07-25T05:28:18.485Z,6.03
2022-07-25T05:30:20.386Z,6.15
2022-07-25T05:32:22.116Z,6.65
2022-07-25T05:34:23.745Z,4.43
2022-07-25T05:36:25.741Z,5.75
2022-07-25T05:38:27.363Z,6.80
2022-07-25T05:40:28.987Z,6.10
2022-07-25T05:42:31.117Z,8.30
2022-07-25T05:46:34.883Z,5.07
2022-07-25T05:48:37.077Z,3.83
2022-07-25T05:52:40.193Z,3.70
2022-07-25T05:56:44.544Z,7.90
2022-07-25T06:00:48.005Z,4.43
2022-07-25T06:04:51.217Z,6.80
2022-07-25T06:06:53.318Z,7.75
2022-07-25T06:08:54.921Z,4.68
2022-07-25T06:10:59.764Z,4.10
2022-07-25T06:13:02.284Z,3.95
2022-07-25T06:15:04.697Z,4.10
2022-07-25T06:17:07.209Z,4.05
2022-07-25T06:19:09.285Z,3.70
2022-07-25T06:21:10.990Z,5.00
2022-07-25T06:25:22.862Z,3.47
2022-07-25T06:27:29.122Z,5.00
2022-07-25T06:29:31.271Z,3.60
2022-07-25T06:31:33.184Z,4.70
2022-07-25T06:33:34.994Z,5.43
2022-07-25T06:35:36.664Z,6.35
2022-07-25T06:37:39.382Z,5.32
2022-07-25T06:39:45.477Z,4.30
2022-07-25T06:41:47.728Z,9.00
2022-07-25T06:43:49.888Z,6.70
2022-07-25T06:45:51.568Z,6.45
2022-07-25T06:47:54.583Z,6.47
2022-07-25T06:49:57.100Z,4.95
2022-07-25T06:51:58.684Z,5.28
2022-07-25T06:54:00.509Z,6.25
2022-07-25T06:56:02.463Z,5.13
2022-07-25T06:58:04.107Z,3.28
2022-07-25T07:00:09.594Z,5.60
2022-07-25T07:02:12.697Z,4.15
2022-07-25T07:04:14.307Z,5.10
2022-07-25T07:06:16.320Z,3.67
2022-07-25T07:08:24.458Z,5.53
2022-07-25T07:10:26.488Z,3.50
2022-07-25T07:12:28.141Z,4.35
2022-07-25T07:14:30.077Z,5.43
2022-07-25T07:16:31.965Z,5.07
2022-07-25T07:18:33.797Z,4.00
2022-07-25T07:20:35.992Z,5.75
2022-07-25T07:22:47.462Z,3.47
2022-07-25T07:24:52.545Z,2.72
2022-07-25T07:26:54.693Z,7.15
2022-07-25T07:29:13.616Z,3.88
2022-07-25T07:31:17.920Z,3.45
2022-07-25T07:33:20.333Z,3.78
2022-07-25T07:37:23.554Z,3.13
2022-07-25T07:39:25.462Z,3.22
2022-07-25T07:41:27.221Z,3.42
2022-07-25T07:43:32.002Z,3.30
2022-07-25T07:45:35.892Z,2.60
2022-07-25T07:47:38.545Z,3.47
2022-07-25T07:49:40.222Z,3.20
2022-07-25T07:51:42.078Z,5.95
2022-07-25T07:54:02.486Z,3.97
2022-07-25T07:56:04.284Z,3.70
2022-07-25T07:58:07.525Z,3.40
2022-07-25T08:00:13.488Z,3.10
2022-07-25T08:02:18.020Z,4.93
2022-07-25T08:06:21.402Z,3.90
2022-07-25T08:08:27.796Z,4.05
2022-07-25T08:10:34.892Z,4.68
2022-07-25T08:12:39.455Z,3.50
2022-07-25T08:14:41.146Z,5.03
2022-07-25T08:16:43.527Z,5.00
2022-07-25T08:20:47.096Z,5.53
2022-07-25T08:22:56.080Z,6.15
2022-07-25T08:24:59.521Z,5.22
2022-07-25T08:27:01.186Z,6.15
2022-07-25T08:29:21.976Z,5.15
2022-07-25T08:33:28.346Z,4.32
2022-07-25T08:35:30.518Z,5.35
2022-07-25T08:37:32.149Z,6.07
2022-07-25T08:39:33.764Z,4.97
2022-07-25T08:41:35.606Z,4.28
2022-07-25T08:43:37.886Z,4.45
2022-07-25T08:45:44.363Z,4.93
2022-07-25T08:47:47.071Z,3.70
2022-07-25T08:51:51.205Z,5.72
2022-07-25T08:53:54.901Z,6.53
2022-07-25T08:55:56.513Z,5.47
2022-07-25T08:57:58.173Z,6.50
2022-07-25T09:00:00.603Z,4.18
2022-07-25T09:02:03.799Z,4.40
2022-07-25T09:04:08.199Z,11.45
2022-07-25T09:06:14.771Z,7.57
2022-07-25T09:08:20.044Z,4.68
2022-07-25T09:10:21.680Z,6.75
2022-07-25T09:12:28.249Z,8.10
2022-07-25T09:14:29.961Z,4.35
2022-07-25T09:16:35.054Z,4.05
2022-07-25T09:18:40.141Z,5.40
2022-07-25T09:20:45.460Z,5.03
2022-07-25T09:22:47.488Z,5.68
2022-07-25T09:24:49.677Z,9.50
2022-07-25T09:26:53.135Z,4.45
2022-07-25T09:28:56.096Z,7.35
2022-07-25T09:30:59.297Z,5.78
2022-07-25T09:33:04.028Z,6.90
2022-07-25T09:35:06.093Z,3.85
2022-07-25T09:39:09.803Z,4.28
2022-07-25T09:41:11.683Z,5.20
2022-07-25T09:43:13.705Z,4.53
2022-07-25T09:45:15.523Z,6.70
2022-07-25T09:47:17.111Z,9.98
2022-07-25T09:49:19.296Z,5.68
2022-07-25T09:51:21.001Z,4.78
2022-07-25T09:53:23.575Z,6.15
2022-07-25T09:55:25.425Z,7.10
2022-07-25T09:57:27.594Z,5.72
2022-07-25T09:59:29.363Z,5.93
2022-07-25T10:01:35.642Z,5.03
2022-07-25T10:03:53.649Z,5.95
2022-07-25T10:06:01.262Z,4.90
2022-07-25T10:08:05.983Z,5.47
2022-07-25T10:10:07.818Z,7.10
2022-07-25T10:12:10.513Z,6.80
2022-07-25T10:14:12.681Z,4.32
2022-07-25T10:16:15.765Z,5.03
2022-07-25T10:18:18.911Z,4.50
2022-07-25T10:20:27.246Z,4.93
2022-07-25T10:22:55.355Z,5.40
2022-07-25T10:25:07.512Z,6.57
2022-07-25T10:27:11.467Z,5.63
2022-07-25T10:29:13.939Z,5.57
2022-07-25T10:31:15.596Z,3.88
2022-07-25T10:35:19.813Z,4.45
2022-07-25T10:37:27.166Z,6.35
2022-07-25T10:39:37.591Z,9.15
2022-07-25T10:41:43.491Z,7.53
2022-07-25T10:43:48.813Z,5.20
2022-07-25T10:45:59.769Z,8.07
2022-07-25T10:48:06.338Z,5.72
2022-07-25T10:50:25.555Z,4.13
2022-07-25T10:52:32.867Z,5.82
2022-07-25T10:54:35.704Z,6.38
2022-07-25T10:56:37.462Z,4.88
2022-07-25T10:58:43.993Z,6.55
2022-07-25T11:00:45.682Z,4.93
2022-07-25T11:02:49.609Z,7.03
2022-07-25T11:05:02.040Z,5.38
2022-07-25T11:07:09.070Z,4.50
2022-07-25T11:09:36.848Z,5.32
2022-07-25T11:11:40.924Z,3.70
2022-07-25T11:13:42.654Z,3.72
2022-07-25T11:15:44.466Z,5.37
2022-07-25T11:17:50.504Z,5.57
2022-07-25T11:19:55.137Z,3.53
2022-07-25T11:21:58.413Z,5.10
2022-07-25T11:24:00.344Z,5.32
2022-07-25T11:26:13.116Z,3.92
2022-07-25T11:28:14.994Z,4.50
2022-07-25T11:30:19.041Z,4.30
2022-07-25T11:32:21.089Z,6.90
2022-07-25T11:34:24.547Z,5.55
2022-07-25T11:36:26.455Z,5.05
2022-07-25T11:38:28.166Z,3.33
2022-07-25T11:40:31.521Z,7.80
2022-07-25T11:42:39.855Z,6.72
2022-07-25T11:44:47.239Z,5.13
2022-07-25T11:46:49.574Z,4.07
2022-07-25T11:48:51.758Z,6.05
2022-07-25T11:50:53.821Z,6.23
2022-07-25T11:52:58.772Z,7.22
2022-07-25T11:55:03.413Z,4.65
2022-07-25T11:57:05.004Z,5.85
2022-07-25T11:59:07.939Z,5.53
2022-07-25T12:01:14.365Z,7.47
2022-07-25T12:03:19.904Z,4.53
2022-07-25T12:05:23.171Z,5.60
2022-07-25T12:09:26.909Z,6.80
2022-07-25T12:11:28.602Z,5.30
2022-07-25T12:13:30.873Z,8.67
2022-07-25T12:15:36.638Z,6.13
2022-07-25T12:17:38.359Z,5.22
2022-07-25T12:19:40.904Z,5.30
2022-07-25T12:21:42.474Z,4.00
2022-07-25T12:23:44.091Z,6.60
2022-07-25T12:25:47.044Z,6.85
2022-07-25T12:29:50.313Z,4.60
2022-07-25T12:31:52.171Z,7.15
2022-07-25T12:33:55.783Z,4.05
2022-07-25T12:35:57.449Z,5.60
2022-07-25T12:37:59.579Z,5.95
2022-07-25T12:40:01.439Z,9.98
2022-07-25T12:42:03.056Z,7.30
2022-07-25T12:44:04.951Z,6.82
2022-07-25T12:46:06.945Z,5.82
2022-07-25T12:48:09.177Z,6.93
2022-07-25T12:50:11.183Z,5.13
2022-07-25T12:52:12.867Z,6.63
2022-07-25T12:54:21.704Z,7.97
2022-07-25T12:56:24.153Z,5.03
2022-07-25T12:58:26.004Z,4.68
2022-07-25T13:00:27.971Z,4.83
2022-07-25T13:02:29.905Z,9.27
2022-07-25T13:04:31.668Z,4.37
2022-07-25T13:06:38.775Z,5.03
2022-07-25T13:08:41.282Z,6.47
2022-07-25T13:10:42.865Z,7.03
2022-07-25T13:12:44.660Z,5.68
2022-07-25T13:14:46.530Z,4.40
2022-07-25T13:16:48.450Z,6.85
2022-07-25T13:18:50.369Z,5.57
2022-07-25T13:20:52.546Z,5.32
2022-07-25T13:22:54.155Z,8.57
2022-07-25T13:24:55.916Z,4.22
2022-07-25T13:26:57.777Z,6.00
2022-07-25T13:29:00.162Z,4.33
2022-07-25T13:31:01.887Z,7.43
2022-07-25T13:33:05.855Z,4.05
2022-07-25T13:35:09.545Z,5.35
2022-07-25T13:37:11.253Z,5.07
2022-07-25T13:39:13.764Z,5.70
2022-07-25T13:41:15.423Z,7.90
2022-07-25T13:43:17.078Z,5.63
2022-07-25T13:45:18.996Z,4.90
2022-07-25T13:47:20.883Z,5.10
2022-07-25T13:49:22.923Z,7.75
2022-07-25T13:51:24.968Z,6.85
2022-07-25T13:53:30.158Z,5.23
2022-07-25T13:55:32.518Z,5.18
2022-07-25T13:57:34.386Z,4.28
2022-07-25T13:59:36.200Z,4.50
2022-07-25T14:01:37.861Z,3.92
2022-07-25T14:03:39.822Z,4.15
2022-07-25T14:05:42.040Z,4.40
2022-07-25T14:09:48.422Z,4.75
2022-07-25T14:11:50.317Z,4.37
2022-07-25T14:13:52.493Z,4.07
2022-07-25T14:15:54.430Z,4.57
2022-07-25T14:17:56.066Z,3.63
2022-07-25T14:19:57.658Z,6.45
2022-07-25T14:21:59.547Z,5.05
2022-07-25T14:24:01.600Z,5.10
2022-07-25T14:26:03.452Z,4.55
2022-07-25T14:28:05.312Z,7.72
2022-07-25T14:30:07.762Z,4.60
2022-07-25T14:32:09.445Z,4.63
2022-07-25T14:34:11.648Z,7.50
2022-07-25T14:36:13.302Z,8.00
2022-07-25T14:38:15.264Z,7.25
2022-07-25T14:40:18.095Z,3.50
2022-07-25T14:42:19.812Z,4.38
2022-07-25T14:44:21.982Z,4.03
2022-07-25T14:46:24.465Z,4.43
2022-07-25T14:48:26.208Z,3.65
2022-07-25T14:50:28.338Z,3.50
2022-07-25T14:52:30.194Z,3.00
2022-07-25T14:54:32.431Z,6.20
2022-07-25T14:56:34.299Z,5.70
2022-07-25T14:58:38.163Z,3.53
2022-07-25T15:00:42.986Z,3.78
2022-07-25T15:02:44.781Z,6.30
2022-07-25T15:04:46.716Z,5.85
2022-07-25T15:06:48.827Z,7.20
2022-07-25T15:08:53.056Z,4.72
2022-07-25T15:10:55.928Z,4.78
2022-07-25T15:13:13.931Z,6.45
2022-07-25T15:15:19.056Z,4.53
2022-07-25T15:17:20.867Z,4.90
2022-07-25T15:19:22.501Z,4.45
2022-07-25T15:21:24.221Z,5.32
2022-07-25T15:23:29.692Z,6.82
2022-07-25T15:27:53.781Z,5.22
2022-07-25T15:29:55.636Z,4.63
2022-07-25T15:31:57.590Z,5.80
2022-07-25T15:33:59.361Z,7.13
2022-07-25T15:36:01.252Z,6.38
2022-07-25T15:38:02.861Z,3.70
2022-07-25T15:40:04.773Z,4.80
2022-07-25T15:42:06.639Z,5.65
2022-07-25T15:44:08.273Z,10.85
2022-07-25T15:46:13.602Z,7.28
2022-07-25T15:48:16.351Z,8.30
2022-07-25T15:50:18.717Z,4.95
2022-07-25T15:52:24.861Z,3.25
2022-07-25T15:54:29.530Z,4.00
2022-07-25T15:56:31.366Z,4.65
2022-07-25T15:58:32.959Z,4.50
2022-07-25T16:00:35.253Z,3.50
2022-07-25T16:02:36.948Z,6.25
2022-07-25T16:04:39.484Z,6.13
2022-07-25T16:06:41.371Z,6.57
2022-07-25T16:08:43.145Z,4.70
2022-07-25T16:10:44.736Z,7.70
2022-07-25T16:12:47.020Z,4.07
2022-07-25T16:14:48.699Z,4.03
2022-07-25T16:16:50.299Z,8.60
2022-07-25T16:18:52.190Z,3.80
2022-07-25T16:20:53.981Z,3.70
2022-07-25T16:22:57.582Z,4.38
2022-07-25T16:25:01.250Z,3.70
2022-07-25T16:27:03.590Z,3.50
2022-07-25T16:29:05.355Z,5.28
2022-07-25T16:31:07.369Z,5.35
2022-07-25T16:33:09.144Z,3.83
2022-07-25T16:35:10.752Z,4.68
2022-07-25T16:37:12.759Z,4.80
2022-07-25T16:39:14.333Z,4.00
2022-07-25T16:41:15.951Z,5.03
2022-07-25T16:43:17.761Z,6.27
2022-07-25T16:45:19.348Z,4.57
2022-07-25T16:47:21.051Z,4.47
2022-07-25T16:49:24.020Z,6.37
2022-07-25T16:51:26.976Z,4.53
2022-07-25T16:53:28.566Z,6.43
2022-07-25T16:55:30.588Z,5.45
2022-07-25T16:57:32.198Z,7.25
2022-07-25T16:59:33.925Z,4.57
2022-07-25T17:01:35.822Z,3.45
2022-07-25T17:03:37.468Z,4.93
2022-07-25T17:05:39.947Z,8.10
2022-07-25T17:09:43.537Z,6.85
2022-07-25T17:11:45.744Z,7.47
2022-07-25T17:13:47.618Z,4.50
2022-07-25T17:15:49.324Z,4.72
2022-07-25T17:17:50.968Z,4.45
2022-07-25T17:19:56.678Z,4.50
2022-07-25T17:22:01.548Z,5.93
2022-07-25T17:24:03.416Z,4.30
2022-07-25T17:26:05.408Z,6.05
2022-07-25T17:28:07.799Z,5.43
2022-07-25T17:30:09.713Z,5.68
2022-07-25T17:32:11.527Z,4.30
2022-07-25T17:34:13.175Z,4.47
2022-07-25T17:36:14.850Z,5.13
2022-07-25T17:38:16.690Z,6.68
2022-07-25T17:40:18.506Z,5.85
2022-07-25T17:42:22.407Z,4.83
2022-07-25T17:44:24.566Z,4.30
2022-07-25T17:46:26.253Z,4.65
2022-07-25T17:48:28.383Z,5.40
2022-07-25T17:50:30.240Z,5.78
2022-07-25T17:52:31.854Z,6.20
2022-07-25T17:54:33.863Z,6.60
2022-07-25T17:56:35.748Z,3.88
2022-07-25T17:58:37.520Z,3.92
2022-07-25T18:00:39.115Z,3.60
2022-07-25T18:02:41.567Z,5.27
2022-07-25T18:04:43.479Z,6.00
2022-07-25T18:06:45.059Z,8.60
2022-07-25T18:08:46.896Z,5.90
2022-07-25T18:10:49.822Z,6.13
2022-07-25T18:12:51.460Z,10.18
2022-07-25T18:14:53.319Z,4.33
2022-07-25T18:16:55.067Z,5.57
2022-07-25T18:18:56.742Z,3.95
2022-07-25T18:20:58.706Z,5.03
2022-07-25T18:23:00.324Z,5.00
2022-07-25T18:25:01.892Z,6.72
2022-07-25T18:27:04.373Z,5.28
2022-07-25T18:29:06.348Z,5.45
2022-07-25T18:31:08.784Z,4.10
2022-07-25T18:35:12.973Z,3.78
2022-07-25T18:37:14.531Z,3.97
2022-07-25T18:39:16.454Z,4.80
2022-07-25T18:41:29.019Z,6.80
2022-07-25T18:45:33.987Z,6.45
2022-07-25T18:47:36.419Z,4.30
2022-07-25T18:49:38.511Z,6.57
2022-07-25T18:51:40.395Z,6.60
2022-07-25T18:53:44.869Z,6.13
2022-07-25T18:55:52.251Z,6.15
2022-07-25T18:57:54.107Z,8.65
2022-07-25T19:00:00.809Z,7.90
2022-07-25T19:02:05.559Z,4.25
2022-07-25T19:04:07.734Z,5.90
2022-07-25T19:06:10.074Z,5.22
2022-07-25T19:08:11.900Z,7.32
2022-07-25T19:10:14.092Z,4.80
2022-07-25T19:12:15.656Z,8.52
2022-07-25T19:14:17.332Z,6.50
2022-07-25T19:16:19.380Z,7.40
2022-07-25T19:18:22.375Z,4.10
2022-07-25T19:20:27.443Z,9.18
2022-07-25T19:22:29.324Z,7.25
2022-07-25T19:24:31.396Z,7.22
2022-07-25T19:26:33.068Z,7.10
2022-07-25T19:28:35.588Z,5.10
2022-07-25T19:30:37.335Z,6.90
2022-07-25T19:32:39.124Z,6.78
2022-07-25T19:34:41.030Z,6.47
2022-07-25T19:36:45.793Z,7.40
2022-07-25T19:38:47.408Z,7.90
2022-07-25T19:40:49.172Z,4.93
2022-07-25T19:42:50.874Z,7.88
2022-07-25T19:44:52.744Z,7.45
2022-07-25T19:46:54.629Z,9.18
2022-07-25T19:48:56.404Z,8.35
2022-07-25T19:50:58.062Z,8.15
2022-07-25T19:53:00.943Z,5.70
2022-07-25T19:55:03.149Z,8.52
2022-07-25T19:57:04.969Z,6.72
2022-07-25T19:59:06.784Z,10.18
2022-07-25T20:01:08.454Z,8.65
2022-07-25T20:03:10.118Z,7.68
2022-07-25T20:05:14.061Z,6.90
2022-07-25T20:07:15.673Z,6.95
2022-07-25T20:09:17.441Z,5.32
2022-07-25T20:11:19.364Z,6.33
2022-07-25T20:13:20.996Z,6.78
2022-07-25T20:15:22.653Z,8.63
2022-07-25T20:17:24.558Z,9.73
2022-07-25T20:19:26.648Z,7.53
2022-07-25T20:21:28.412Z,7.13
2022-07-25T20:23:30.780Z,7.10
2022-07-25T20:25:32.448Z,10.15
2022-07-25T20:27:34.206Z,9.27
2022-07-25T20:29:36.452Z,7.35
2022-07-25T20:31:39.282Z,8.80
2022-07-25T20:33:41.087Z,7.30
2022-07-25T20:35:43.398Z,11.48
2022-07-25T20:37:45.179Z,10.38
2022-07-25T20:39:47.117Z,7.90
2022-07-25T20:41:50.146Z,8.73
2022-07-25T20:43:51.866Z,10.80
2022-07-25T20:45:53.586Z,8.90
2022-07-25T20:47:55.512Z,10.00
2022-07-25T20:49:57.222Z,11.85
2022-07-25T20:51:58.842Z,9.27
2022-07-25T20:54:00.604Z,6.88
2022-07-25T20:56:05.070Z,6.25
2022-07-25T20:58:06.756Z,7.97
2022-07-25T21:00:08.992Z,6.05
2022-07-25T21:02:11.497Z,8.68
2022-07-25T21:04:13.251Z,12.00
2022-07-25T21:06:15.308Z,9.50
2022-07-25T21:08:17.640Z,8.38
2022-07-25T21:10:19.358Z,9.07
2022-07-25T21:12:21.183Z,11.50
2022-07-25T21:14:23.169Z,10.40
2022-07-25T21:16:27.307Z,9.30
2022-07-25T21:18:29.365Z,11.80
2022-07-25T21:20:30.927Z,10.10
2022-07-25T21:22:32.605Z,10.82
2022-07-25T21:24:34.488Z,8.18
2022-07-25T21:26:39.245Z,11.57
2022-07-25T21:28:41.548Z,10.48
2022-07-25T21:32:45.696Z,8.30
2022-07-25T21:34:49.701Z,6.70
2022-07-25T21:36:51.615Z,9.00
2022-07-25T21:38:53.235Z,9.15
2022-07-25T21:40:55.438Z,7.50
2022-07-25T21:42:57.355Z,10.93
2022-07-25T21:44:58.908Z,10.00
2022-07-25T21:47:00.514Z,8.07
2022-07-25T21:49:25.484Z,12.38
2022-07-25T21:51:42.522Z,10.13
2022-07-25T21:53:44.653Z,15.10
2022-07-25T21:55:46.514Z,9.57
2022-07-25T21:57:48.944Z,11.02
2022-07-25T21:59:50.631Z,13.38
2022-07-25T22:01:52.566Z,11.03
2022-07-25T22:03:56.218Z,14.32
2022-07-25T22:05:57.909Z,9.45
2022-07-25T22:08:00.438Z,7.85
2022-07-25T22:10:02.223Z,8.75
2022-07-25T22:12:04.603Z,8.65
2022-07-25T22:14:06.502Z,8.52
2022-07-25T22:16:09.340Z,7.93
2022-07-25T22:20:13.111Z,9.50
2022-07-25T22:22:15.159Z,8.75
2022-07-25T22:24:16.867Z,8.63
2022-07-25T22:26:20.207Z,12.03
2022-07-25T22:28:21.896Z,8.05
2022-07-25T22:30:23.751Z,8.65
2022-07-25T22:32:25.498Z,7.67
2022-07-25T22:34:27.219Z,7.97
2022-07-25T22:36:28.921Z,14.60
2022-07-25T22:38:31.371Z,7.57
2022-07-25T22:40:32.940Z,7.85
2022-07-25T22:42:34.561Z,7.40
2022-07-25T22:44:36.261Z,10.75
2022-07-25T22:46:37.861Z,7.35
2022-07-25T22:48:39.508Z,8.77
2022-07-25T22:50:41.342Z,8.00
2022-07-25T22:52:43.033Z,10.27
2022-07-25T22:54:44.821Z,7.55
2022-07-25T22:56:46.555Z,9.67
2022-07-25T22:58:48.717Z,7.93
2022-07-25T23:00:50.799Z,8.25
2022-07-25T23:02:52.637Z,6.65
2022-07-25T23:04:54.212Z,7.47
2022-07-25T23:06:55.911Z,7.72
2022-07-25T23:08:57.609Z,11.00
2022-07-25T23:10:59.152Z,11.40
2022-07-25T23:13:00.660Z,10.20
2022-07-25T23:15:02.573Z,9.75
2022-07-25T23:17:23.006Z,9.77
2022-07-25T23:19:24.568Z,9.77
2022-07-25T23:21:26.276Z,9.35
2022-07-25T23:23:27.827Z,10.40
2022-07-25T23:25:29.569Z,12.00
2022-07-25T23:27:34.887Z,9.47
2022-07-25T23:29:37.033Z,10.27
2022-07-25T23:31:38.590Z,13.75
2022-07-25T23:33:40.304Z,12.98
2022-07-25T23:35:42.257Z,15.68
2022-07-25T23:37:45.078Z,11.93
2022-07-25T23:39:46.799Z,16.88
2022-07-25T23:41:48.354Z,12.55
2022-07-25T23:43:59.214Z,14.02
2022-07-25T23:46:01.781Z,14.25
2022-07-25T23:48:04.252Z,14.70
2022-07-25T23:50:06.225Z,18.63
2022-07-25T23:52:09.376Z,15.52
2022-07-25T23:54:11.316Z,14.70
2022-07-25T23:56:17.281Z,16.13
2022-07-25T23:58:22.159Z,14.82
